Flight Track Log - Related Links

Times and Time Zones

All times are in EDT time to prevent confusion due to time zone crossing. See the AAL1776 flight status page for this flight to view local times or setup timezone preferences in your user account.

Time Position Orientation Groundspeed Altitude Reporting Facility
EDT Latitude Longitude Course Direction KTS MPH feet Rate Location/Type
Thu 07:38:58 AM 32.8667 -97.0333 64° Northeast 188 216 1,500  Level Dallas / Fort Worth TRACON
Thu 07:40:22 AM 32.8000 -97.0000 157° South 239 275 4,400 2,125 Climbing Dallas / Fort Worth TRACON
Thu 07:41:00 AM 32.8000 -96.7167 68° East  Level FlightAware Approximate
Thu 07:41:22 AM 32.7833 -96.9167 103° East 284 327 6,600  Level Dallas / Fort Worth TRACON
Thu 07:42:00 AM 32.8524 -96.5882 62° Northeast  Level FlightAware Approximate
Thu 07:42:58 AM 32.8464 -96.8025 57° Northeast 299 344 10,600  Level Fort Worth Center
Thu 07:43:00 AM 32.9087 -96.4616 64° Northeast  Level FlightAware Approximate
Thu 07:43:58 AM 32.9006 -96.7331 47° Northeast 307 353 12,000  Level Fort Worth Center
Thu 07:44:00 AM 32.9604 -96.3323 64° Northeast  Level FlightAware Approximate
Thu 07:44:58 AM 32.9456 -96.6164 65° Northeast 336 387 14,300  Level Fort Worth Center
Thu 07:45:58 AM 32.9783 -96.5069 70° East 358 412 16,300 2,000 Climbing Fort Worth Center
Thu 07:46:58 AM 33.0211 -96.3753 69° East 387 445 18,300 1,850 Climbing Fort Worth Center
Thu 07:47:58 AM 33.0578 -96.2583 69° East 404 465 20,000 1,950 Climbing Fort Worth Center
Thu 07:48:58 AM 33.1064 -96.1164 68° East 410 472 22,200 1,750 Climbing Fort Worth Center
Thu 07:49:58 AM 33.1364 -95.9969 73° East 416 479 23,500 1,250 Climbing Fort Worth Center
Thu 07:50:58 AM 33.1767 -95.8597 71° East 427 491 24,700 1,300 Climbing Fort Worth Center
Thu 07:51:58 AM 33.2250 -95.7222 67° East 427 491 26,100 1,250 Climbing Fort Worth Center
Thu 07:52:58 AM 33.2731 -95.5797 68° East 437 503 27,200 1,200 Climbing Fort Worth Center
Thu 07:53:58 AM 33.3189 -95.4397 69° East 443 510 28,500 1,400 Climbing Fort Worth Center
Thu 07:54:58 AM 33.3686 -95.2942 68° East 456 525 30,000 1,200 Climbing Fort Worth Center
Thu 07:55:58 AM 33.4186 -95.1561 67° East 456 525 30,900 500 Climbing Fort Worth Center
Thu 07:56:58 AM 33.4658 -95.0131 68° East 456 525 31,000 50 Climbing Fort Worth Center
Thu 07:57:58 AM 33.5133 -94.8722 68° East 456 525 31,000 1,000 Level Fort Worth Center
Thu 07:58:58 AM 33.5625 -94.7289 68° East 456 525 33,000  Climbing Fort Worth Center
Thu 07:59:58 AM 33.6053 -94.5853 70° East 456 525 31,000 -1,000 Descending Fort Worth Center
Thu 08:00:58 AM 33.6542 -94.4414 68° East 456 525 31,000  Level Fort Worth Center
Thu 08:01:58 AM 33.7028 -94.3000 68° East 456 525 31,000  Level Fort Worth Center
Thu 08:02:58 AM 33.7492 -94.1561 69° East 456 525 31,000  Level Fort Worth Center
Thu 08:03:50 AM 33.7889 -94.0336 69° East 448 516 31,000 161 Level Memphis Center
Thu 08:04:50 AM 33.8350 -93.8881 69° East 448 516 31,300 700 Climbing Memphis Center
Thu 08:05:50 AM 33.8806 -93.7450 69° East 448 516 32,400 850 Climbing Memphis Center
Thu 08:06:50 AM 33.9261 -93.5989 69° East 448 516 33,000 300 Climbing Memphis Center
Thu 08:07:50 AM 33.9717 -93.4556 69° East 453 521 33,000  Level Memphis Center
Thu 08:08:50 AM 34.0167 -93.3117 69° East 453 521 33,000  Level Memphis Center
Thu 08:09:50 AM 34.0642 -93.1628 69° East 459 528 33,000  Level Memphis Center
Thu 08:10:50 AM 34.1089 -93.0164 70° East 459 528 33,000  Level Memphis Center
Thu 08:11:50 AM 34.1558 -92.8747 68° East 459 528 33,000  Level Memphis Center
Thu 08:12:50 AM 34.1983 -92.7278 71° East 459 528 33,000  Level Memphis Center
Thu 08:13:50 AM 34.2386 -92.5808 72° East 464 534 33,000  Level Memphis Center
Thu 08:14:50 AM 34.2828 -92.4311 70° East 464 534 33,000  Level Memphis Center
Thu 08:15:50 AM 34.3289 -92.2861 69° East 464 534 33,000  Level Memphis Center
Thu 08:16:50 AM 34.3750 -92.1364 70° East 464 534 33,000  Level Memphis Center
Thu 08:17:50 AM 34.4231 -91.9861 69° East 470 541 33,000  Level Memphis Center
Thu 08:18:50 AM 34.4686 -91.8358 70° East 470 541 33,000  Level Memphis Center
Thu 08:19:50 AM 34.5164 -91.6728 70° East 464 534 33,000  Level Memphis Center
Thu 08:20:50 AM 34.5639 -91.5247 69° East 470 541 33,000  Level Memphis Center
Thu 08:21:50 AM 34.6069 -91.3764 71° East 470 541 33,000  Level Memphis Center
Thu 08:22:50 AM 34.6517 -91.2256 70° East 465 535 33,000  Level Memphis Center
Thu 08:23:50 AM 34.6922 -91.0922 70° East 471 542 33,000  Level Memphis Center
Thu 08:24:50 AM 34.7347 -90.9433 71° East 466 536 33,000  Level Memphis Center
Thu 08:25:50 AM 34.7814 -90.7919 69° East 466 536 33,000  Level Memphis Center
Thu 08:26:50 AM 34.8233 -90.6456 71° East 466 536 33,000  Level Memphis Center
Thu 08:27:50 AM 34.8697 -90.4914 70° East 473 544 33,000  Level Memphis Center
Thu 08:28:50 AM 34.9156 -90.3292 71° East 468 539 33,000  Level Memphis Center
Thu 08:29:50 AM 34.9614 -90.1747 70° East 468 539 33,000  Level Memphis Center
Thu 08:30:50 AM 35.0047 -90.0250 71° East 473 544 33,000  Level Memphis Center
Thu 08:31:50 AM 35.0586 -89.8725 67° East 473 544 33,000  Level Memphis Center
Thu 08:32:50 AM 35.1100 -89.7225 67° East 473 544 33,000  Level Memphis Center
Thu 08:33:50 AM 35.1572 -89.5875 67° East 478 550 33,000  Level Memphis Center
Thu 08:34:50 AM 35.2106 -89.4369 67° East 478 550 33,000  Level Memphis Center
Thu 08:35:50 AM 35.2633 -89.2864 67° East 478 550 33,000  Level Memphis Center
Thu 08:36:50 AM 35.3142 -89.1383 67° East 478 550 33,000  Level Memphis Center
Thu 08:37:50 AM 35.3669 -88.9897 66° East 473 544 33,000  Level Memphis Center
Thu 08:38:50 AM 35.4233 -88.8283 67° East 473 544 33,000  Level Memphis Center
Thu 08:39:50 AM 35.4675 -88.6975 67° East 473 544 33,000  Level Memphis Center
Thu 08:40:50 AM 35.5217 -88.5433 67° East 473 544 33,000  Level Memphis Center
Thu 08:41:50 AM 35.5739 -88.3967 66° East 473 544 33,000  Level Memphis Center
Thu 08:42:50 AM 35.6256 -88.2447 67° East 478 550 33,000  Level Memphis Center
Thu 08:43:50 AM 35.6811 -88.0875 66° East 464 534 33,000  Level Memphis Center
Thu 08:44:50 AM 35.7303 -87.9378 68° East 464 534 33,000  Level Memphis Center
Thu 08:45:50 AM 35.7736 -87.8061 68° East 464 534 33,000  Level Memphis Center
Thu 08:46:50 AM 35.8247 -87.6561 67° East 464 534 33,000  Level Memphis Center
Thu 08:47:50 AM 35.8692 -87.5058 70° East 464 534 33,000  Level Memphis Center
Thu 08:48:50 AM 35.9178 -87.3531 69° East 473 544 33,000  Level Memphis Center
Thu 08:49:50 AM 35.9661 -87.1975 69° East 473 544 33,000  Level Memphis Center
Thu 08:50:50 AM 36.0164 -87.0467 68° East 473 544 33,000  Level Memphis Center
Thu 08:51:50 AM 36.0664 -86.8906 68° East 478 550 33,000  Level Memphis Center
Thu 08:52:50 AM 36.1139 -86.7317 70° East 478 550 33,000  Level Memphis Center
Thu 08:53:50 AM 36.1656 -86.5753 68° East 485 558 33,000  Level Memphis Center
Thu 08:54:50 AM 36.2192 -86.4208 67° East 485 558 33,000  Level Memphis Center
Thu 08:55:50 AM 36.2683 -86.2642 69° East 480 552 33,000  Level Memphis Center
Thu 08:57:30 AM 36.3533 -86.0083 68° East 476 548 33,000  Level Indianapolis Center
Thu 08:58:31 AM 36.4011 -85.8525 69° East 478 550 33,000  Level Indianapolis Center
Thu 08:59:32 AM 36.4500 -85.7044 68° East 464 534 33,000  Level Indianapolis Center
Thu 09:00:34 AM 36.4981 -85.5547 68° East 463 533 33,000  Level Indianapolis Center
Thu 09:01:35 AM 36.5447 -85.4047 69° East 461 531 33,000  Level Indianapolis Center
Thu 09:02:36 AM 36.5903 -85.2558 69° East 459 528 33,000  Level Indianapolis Center
Thu 09:03:37 AM 36.6369 -85.1053 69° East 462 532 33,000  Level Indianapolis Center
Thu 09:04:38 AM 36.6925 -84.9231 69° East 465 535 33,000  Level Indianapolis Center
Thu 09:05:40 AM 36.7394 -84.7708 69° East 467 537 33,000  Level Indianapolis Center
Thu 09:06:41 AM 36.7858 -84.6192 69° East 466 536 33,000  Level Indianapolis Center
Thu 09:07:42 AM 36.8272 -84.4800 70° East 470 541 33,000  Level Indianapolis Center
Thu 09:08:44 AM 36.8725 -84.3253 70° East 474 545 33,000  Level Indianapolis Center
Thu 09:09:45 AM 36.9281 -84.1489 68° East 468 539 33,000  Level Indianapolis Center
Thu 09:10:46 AM 36.9739 -83.9967 69° East 466 536 33,000  Level Indianapolis Center
Thu 09:11:47 AM 37.0186 -83.8456 70° East 463 533 33,000  Level Indianapolis Center
Thu 09:12:49 AM 37.0644 -83.6936 69° East 465 535 33,000  Level Indianapolis Center
Thu 09:13:50 AM 37.1089 -83.5392 70° East 467 537 33,000  Level Indianapolis Center
Thu 09:14:51 AM 37.1533 -83.3869 70° East 464 534 33,000  Level Indianapolis Center
Thu 09:15:53 AM 37.1994 -83.2314 70° East 469 540 33,000  Level Indianapolis Center
Thu 09:16:54 AM 37.2436 -83.0767 70° East 467 537 33,000  Level Indianapolis Center
Thu 09:17:55 AM 37.2872 -82.9244 70° East 460 529 33,000  Level Indianapolis Center
Thu 09:18:57 AM 37.3314 -82.7708 70° East 464 534 33,000  Level Indianapolis Center
Thu 09:19:58 AM 37.3750 -82.6178 70° East 462 532 33,000  Level Indianapolis Center
Thu 09:20:59 AM 37.4175 -82.4642 71° East 462 532 33,000  Level Indianapolis Center
Thu 09:22:01 AM 37.4669 -82.2889 70° East 457 526 33,000  Level Indianapolis Center
Thu 09:23:02 AM 37.5086 -82.1361 71° East 459 528 33,000  Level Indianapolis Center
Thu 09:24:04 AM 37.5511 -81.9856 70° East 457 526 33,000  Level Indianapolis Center
Thu 09:25:05 AM 37.5925 -81.8328 71° East 458 527 33,000  Level Indianapolis Center
Thu 09:26:06 AM 37.6333 -81.6806 71° East 458 527 33,000  Level Indianapolis Center
Thu 09:27:08 AM 37.6742 -81.5283 71° East 456 525 33,000  Level Indianapolis Center
Thu 09:28:09 AM 37.7194 -81.3594 71° East 459 528 33,000  Level Indianapolis Center
Thu 09:29:11 AM 37.7592 -81.2114 71° East 458 527 33,000  Level Indianapolis Center
Thu 09:30:12 AM 37.7897 -81.0622 75° East 453 521 33,000  Level Indianapolis Center
Thu 09:31:14 AM 37.7969 -80.9075 87° East 452 520 33,000  Level Indianapolis Center
Thu 09:32:15 AM 37.8083 -80.7239 85° East 449 517 33,000  Level Indianapolis Center
Thu 09:33:17 AM 37.8156 -80.5864 86° East 449 517 33,000  Level Indianapolis Center
Thu 09:34:18 AM 37.8264 -80.4183 85° East 446 513 33,000  Level Indianapolis Center
Thu 09:35:20 AM 37.8350 -80.2656 86° East 448 516 33,000  Level Indianapolis Center
Thu 09:36:21 AM 37.8467 -80.0819 85° East 448 516 33,000  Level Indianapolis Center
Thu 09:37:23 AM 37.8564 -79.9300 85° East 445 512 33,000  Level Indianapolis Center
Thu 09:38:24 AM 37.8644 -79.7747 86° East 449 517 33,000  Level Indianapolis Center
Thu 09:39:26 AM 37.8733 -79.6200 86° East 450 518 33,000  Level Indianapolis Center
Thu 09:40:33 AM 37.8867 -79.4308 85° East 443 510 33,000  Level Washington Center
Thu 09:41:33 AM 37.8978 -79.2708 85° East 449 517 33,000  Level Washington Center
Thu 09:42:31 AM 37.9047 -79.1131 87° East 449 517 33,000  Level Washington Center
Thu 09:43:32 AM 37.9464 -78.9728 69° East 455 524 33,000  Level Washington Center
Thu 09:44:33 AM 37.9983 -78.8225 66° East 455 524 33,000  Level Washington Center
Thu 09:45:31 AM 38.0503 -78.6717 66° East 460 529 33,000  Level Washington Center
Thu 09:46:32 AM 38.1042 -78.5233 65° Northeast 465 535 33,000  Level Washington Center
Thu 09:47:33 AM 38.1494 -78.3747 69° East 460 529 33,000  Level Washington Center
Thu 09:48:33 AM 38.2006 -78.2261 66° East 460 529 33,000  Level Washington Center
Thu 09:49:31 AM 38.2539 -78.0719 66° East 460 529 33,000  Level Washington Center
Thu 09:50:32 AM 38.3050 -77.9228 66° East 460 529 33,000 -347 Level Washington Center
Thu 09:51:32 AM 38.3600 -77.7708 65° Northeast 460 529 32,300 -843 Descending Washington Center
Thu 09:52:33 AM 38.4106 -77.6161 67° East 460 529 31,300 -942 Descending Washington Center
Thu 09:53:33 AM 38.4608 -77.4664 67° East 465 535 30,400 -966 Descending Washington Center
Thu 09:54:31 AM 38.5133 -77.3111 67° East 470 541 29,400 -1,109 Descending Washington Center
Thu 09:55:32 AM 38.5656 -77.1583 66° East 470 541 28,200 -1,672 Descending Washington Center
Thu 09:56:33 AM 38.6217 -76.9894 67° East 470 541 26,000 -1,934 Descending Washington Center
Thu 09:57:33 AM 38.6733 -76.8389 66° East 470 541 24,300 -1,220 Descending Washington Center
Thu 09:58:31 AM 38.7144 -76.6906 70° East 459 528 23,600 -1,462 Descending Washington Center
Thu 09:59:32 AM 38.7469 -76.5419 74° East 439 505 21,400 -2,281 Descending Washington Center
Thu 10:00:32 AM 38.7772 -76.3958 75° East 434 499 19,000 -2,182 Descending Washington Center
Thu 10:01:33 AM 38.8053 -76.2575 75° East 417 480 17,000 -1,934 Descending Washington Center
Thu 10:02:33 AM 38.8350 -76.1167 75° East 406 467 15,100 -1,068 Descending Washington Center
Thu 10:03:31 AM 38.8625 -75.9861 75° East 390 449 14,900 -303 Descending Washington Center
Thu 10:04:32 AM 38.8922 -75.8611 73° East 380 437 14,500 -836 Descending Washington Center
Thu 10:05:33 AM 38.9675 -75.7678 44° Northeast 364 419 13,200 -1,361 Descending Washington Center
Thu 10:06:31 AM 39.0531 -75.6853 37° Northeast 364 419 11,800 -1,193 Descending Washington Center
Thu 10:08:14 AM 39.2167 -75.6667 North 314 361 10,000 -667 Descending Philadelphia TRACON
Thu 10:09:13 AM 39.3000 -75.6500 North 305 351 10,000 -350 Level Philadelphia TRACON
Thu 10:10:14 AM 39.3667 -75.5833 38° Northeast 314 361 9,300 -857 Descending Philadelphia TRACON
Thu 10:11:19 AM 39.4167 -75.4833 57° Northeast 304 350 8,200 -952 Descending Philadelphia TRACON
Thu 10:12:20 AM 39.4500 -75.3833 67° East 304 350 7,300 -595 Descending Philadelphia TRACON
Thu 10:13:20 AM 39.4833 -75.2833 67° East 297 342 7,000 -158 Descending Philadelphia TRACON
Thu 10:14:14 AM 39.5500 -75.2167 38° Northeast 297 342 7,000  Level Philadelphia TRACON
Thu 10:15:19 AM 39.6167 -75.1500 38° Northeast 301 346 7,000 -288 Level Philadelphia TRACON
Thu 10:16:19 AM 39.6833 -75.0833 38° Northeast 299 344 6,400 -500 Descending Philadelphia TRACON
Thu 10:17:19 AM 39.7333 -75.0333 38° Northeast 288 331 6,000 -209 Descending Philadelphia TRACON
Thu 10:18:14 AM 39.8000 -74.9667 38° Northeast 245 282 6,000 -470 Level Philadelphia TRACON
Thu 10:19:14 AM 39.8500 -74.9167 38° Northeast 217 250 5,100 -1,050 Descending Philadelphia TRACON
Thu 10:20:14 AM 39.9000 -74.8833 27° Northeast 214 246 3,900 -1,050 Descending Philadelphia TRACON
Thu 10:21:14 AM 39.9333 -74.9167 323° Northwest 185 213 3,000 -450 Descending Philadelphia TRACON
Thu 10:22:14 AM 39.9167 -74.9833 252° West 171 197 3,000  Level Philadelphia TRACON

Login

Don't have an account? Register now (free) for customized features, flight alerts, and more!